createdAt,value
2023-01-10T00:00:35.388Z,96774.59
2023-01-10T00:03:04.539Z,96775.56
2023-01-10T00:05:34.284Z,96776.25
2023-01-10T00:08:03.546Z,96775.28
2023-01-10T00:10:32.725Z,96775.84
2023-01-10T00:13:19.131Z,96776.25
2023-01-10T00:15:47.884Z,96774.44
2023-01-10T00:18:16.492Z,96762.94
2023-01-10T00:20:46.762Z,96769.31
2023-01-10T00:23:15.367Z,96778.34
2023-01-10T00:25:47.500Z,96778.63
2023-01-10T00:28:20.610Z,96773.22
2023-01-10T00:30:54.926Z,96769.06
2023-01-10T00:33:23.865Z,96780.00
2023-01-10T00:35:53.733Z,96784.44
2023-01-10T00:38:24.617Z,96791.91
2023-01-10T00:40:53.287Z,96791.09
2023-01-10T00:43:39.511Z,96790.69
2023-01-10T00:46:08.535Z,96794.28
2023-01-10T00:48:37.237Z,96808.13
2023-01-10T00:51:07.288Z,96804.69
2023-01-10T00:53:35.668Z,96816.19
2023-01-10T00:56:04.127Z,96817.16
2023-01-10T00:58:34.027Z,96819.66
2023-01-10T01:01:02.481Z,96825.06
2023-01-10T01:03:30.954Z,96831.84
2023-01-10T01:05:59.394Z,96832.25
2023-01-10T01:08:29.121Z,96845.00
2023-01-10T01:10:57.490Z,96850.00
2023-01-10T01:13:26.540Z,96853.75
2023-01-10T01:15:54.983Z,96862.75
2023-01-10T01:18:23.395Z,96864.84
2023-01-10T01:20:54.940Z,96866.78
2023-01-10T01:23:23.801Z,96876.91
2023-01-10T01:25:54.281Z,96875.22
2023-01-10T01:28:22.931Z,96881.19
2023-01-10T01:30:51.899Z,96879.50
2023-01-10T01:33:20.994Z,96883.81
2023-01-10T01:35:50.395Z,96889.63
2023-01-10T01:38:19.057Z,96893.09
2023-01-10T01:40:47.515Z,96904.34
2023-01-10T01:43:24.685Z,96900.59
2023-01-10T01:45:53.612Z,96905.47
2023-01-10T01:48:30.510Z,96896.59
2023-01-10T01:51:05.413Z,96904.63
2023-01-10T01:53:36.478Z,96911.41
2023-01-10T01:56:09.513Z,96916.56
2023-01-10T01:58:43.640Z,96923.63
2023-01-10T02:01:13.336Z,96940.13
2023-01-10T02:03:43.394Z,96935.69
2023-01-10T02:06:12.050Z,96933.19
2023-01-10T02:08:45.838Z,96937.50
2023-01-10T02:11:14.348Z,96942.63
2023-01-10T02:13:46.613Z,96947.34
2023-01-10T02:16:15.685Z,96941.09
2023-01-10T02:18:44.906Z,96944.69
2023-01-10T02:21:25.834Z,96953.44
2023-01-10T02:24:43.596Z,96955.22
2023-01-10T02:27:21.404Z,96953.44
2023-01-10T02:30:17.321Z,96965.06
2023-01-10T02:33:00.614Z,96949.25
2023-01-10T02:35:50.019Z,96959.25
2023-01-10T02:38:24.538Z,96959.38
2023-01-10T02:40:58.258Z,96959.50
2023-01-10T02:43:30.485Z,96968.38
2023-01-10T02:46:01.116Z,96965.59
2023-01-10T02:48:30.844Z,96965.59
2023-01-10T02:51:03.079Z,96965.47
2023-01-10T02:53:35.383Z,96977.81
2023-01-10T02:56:20.324Z,96985.97
2023-01-10T02:59:05.932Z,96989.44
2023-01-10T03:01:38.604Z,96993.63
2023-01-10T03:04:14.821Z,96994.59
2023-01-10T03:06:46.522Z,97008.00
2023-01-10T03:09:17.884Z,97009.38
2023-01-10T03:11:47.459Z,97010.91
2023-01-10T03:14:18.922Z,97009.94
2023-01-10T03:16:52.402Z,97020.63
2023-01-10T03:19:24.040Z,97016.88
2023-01-10T03:21:56.967Z,97023.25
2023-01-10T03:24:28.490Z,97020.47
2023-01-10T03:26:59.263Z,97029.22
2023-01-10T03:29:30.973Z,97038.75
2023-01-10T03:32:02.659Z,97046.22
2023-01-10T03:34:32.698Z,97042.88
2023-01-10T03:37:05.803Z,97062.56
2023-01-10T03:39:37.782Z,97066.19
2023-01-10T03:42:10.142Z,97071.69
2023-01-10T03:44:45.050Z,97069.66
2023-01-10T03:47:19.750Z,97076.56
2023-01-10T03:49:51.788Z,97084.75
2023-01-10T03:52:20.874Z,97091.66
2023-01-10T03:54:49.463Z,97093.59
2023-01-10T03:57:19.971Z,97092.38
2023-01-10T03:59:48.888Z,97097.78
2023-01-10T04:02:17.294Z,97101.81
2023-01-10T04:04:45.670Z,97109.84
2023-01-10T04:07:15.411Z,97114.16
2023-01-10T04:09:43.809Z,97119.41
2023-01-10T04:12:12.224Z,97122.19
2023-01-10T04:14:40.883Z,97119.41
2023-01-10T04:17:09.357Z,97123.97
2023-01-10T04:19:37.752Z,97126.34
2023-01-10T04:22:06.713Z,97134.25
2023-01-10T04:24:36.715Z,97148.25
2023-01-10T04:27:05.502Z,97148.50
2023-01-10T04:29:33.860Z,97158.59
2023-01-10T04:32:02.211Z,97156.53
2023-01-10T04:34:30.537Z,97158.66
2023-01-10T04:36:58.912Z,97164.88
2023-01-10T04:39:27.284Z,97167.66
2023-01-10T04:41:57.097Z,97164.19
2023-01-10T04:44:25.454Z,97172.09
2023-01-10T04:46:53.842Z,97182.63
2023-01-10T04:49:22.213Z,97177.34
2023-01-10T04:51:50.564Z,97186.22
2023-01-10T04:54:21.131Z,97189.81
2023-01-10T04:56:49.495Z,97197.72
2023-01-10T04:59:19.554Z,97195.06
2023-01-10T05:01:48.071Z,97203.22
2023-01-10T05:04:16.567Z,97209.22
2023-01-10T05:06:44.971Z,97217.09
2023-01-10T05:09:13.371Z,97229.44
2023-01-10T05:11:42.019Z,97236.75
2023-01-10T05:14:10.390Z,97234.56
2023-01-10T05:16:40.597Z,97240.81
2023-01-10T05:19:09.502Z,97246.91
2023-01-10T05:21:38.155Z,97250.50
2023-01-10T05:24:07.488Z,97247.03
2023-01-10T05:26:35.884Z,97248.81
2023-01-10T05:29:04.492Z,97259.38
2023-01-10T05:31:32.897Z,97262.13
2023-01-10T05:34:02.652Z,97274.56
2023-01-10T05:36:31.079Z,97278.44
2023-01-10T05:38:59.537Z,97277.59
2023-01-10T05:41:27.911Z,97269.56
2023-01-10T05:43:56.350Z,97284.97
2023-01-10T05:46:24.873Z,97286.66
2023-01-10T05:48:53.495Z,97287.38
2023-01-10T05:51:23.231Z,97290.25
2023-01-10T05:53:51.593Z,97299.69
2023-01-10T05:56:20.012Z,97303.66
2023-01-10T05:58:51.421Z,97311.19
2023-01-10T06:01:22.552Z,97314.78
2023-01-10T06:03:50.953Z,97327.81
2023-01-10T06:06:19.338Z,97332.97
2023-01-10T06:08:49.141Z,97342.66
2023-01-10T06:11:17.549Z,97341.84
2023-01-10T06:13:45.974Z,97356.66
2023-01-10T06:16:14.467Z,97355.84
2023-01-10T06:18:43.809Z,97371.63
2023-01-10T06:21:12.200Z,97372.72
2023-01-10T06:23:40.688Z,97372.72
2023-01-10T06:26:10.490Z,97378.81
2023-01-10T06:28:41.049Z,97379.53
2023-01-10T06:31:09.673Z,97385.03
2023-01-10T06:33:38.925Z,97394.63
2023-01-10T06:36:07.977Z,97404.06
2023-01-10T06:38:36.399Z,97407.78
2023-01-10T06:41:13.049Z,97414.00
2023-01-10T06:43:45.267Z,97424.31
2023-01-10T06:46:16.127Z,97433.03
2023-01-10T06:48:45.747Z,97433.28
2023-01-10T06:51:14.955Z,97441.06
2023-01-10T06:53:43.713Z,97434.50
2023-01-10T06:56:12.144Z,97450.88
2023-01-10T06:58:40.685Z,97457.81
2023-01-10T07:01:15.208Z,97464.88
2023-01-10T07:03:44.082Z,97466.69
2023-01-10T07:06:12.732Z,97481.63
2023-01-10T07:08:42.687Z,97488.00
2023-01-10T07:11:11.711Z,97495.75
2023-01-10T07:13:40.415Z,97504.38
2023-01-10T07:16:12.620Z,97512.41
2023-01-10T07:18:43.333Z,97511.56
2023-01-10T07:21:12.594Z,97513.72
2023-01-10T07:23:41.377Z,97519.81
2023-01-10T07:26:11.315Z,97532.50
2023-01-10T07:28:39.828Z,97535.97
2023-01-10T07:31:08.301Z,97540.16
2023-01-10T07:33:38.107Z,97549.75
2023-01-10T07:36:08.776Z,97560.50
2023-01-10T07:38:38.444Z,97570.69
2023-01-10T07:41:06.861Z,97564.09
2023-01-10T07:43:35.899Z,97565.91
2023-01-10T07:46:08.213Z,97570.56
2023-01-10T07:48:38.143Z,97574.50
2023-01-10T07:51:07.086Z,97579.41
2023-01-10T07:53:37.893Z,97583.72
2023-01-10T07:56:07.289Z,97589.09
2023-01-10T07:58:35.732Z,97599.41
2023-01-10T08:01:05.475Z,97603.94
2023-01-10T08:03:34.247Z,97605.50
2023-01-10T08:06:05.788Z,97607.66
2023-01-10T08:08:34.636Z,97619.16
2023-01-10T08:11:03.595Z,97621.78
2023-01-10T08:13:32.844Z,97629.09
2023-01-10T08:16:05.061Z,97623.44
2023-01-10T08:18:33.649Z,97622.38
2023-01-10T08:21:02.122Z,97630.38
2023-01-10T08:23:32.388Z,97634.47
2023-01-10T08:26:00.985Z,97652.19
2023-01-10T08:28:29.802Z,97648.34
2023-01-10T08:30:58.533Z,97654.47
2023-01-10T08:33:27.442Z,97651.69
2023-01-10T08:35:55.971Z,97660.06
2023-01-10T08:38:24.315Z,97669.84
2023-01-10T08:40:53.985Z,97660.88
2023-01-10T08:43:22.389Z,97664.00
2023-01-10T08:45:50.778Z,97671.06
2023-01-10T08:48:19.286Z,97671.31
2023-01-10T08:50:47.761Z,97672.16
2023-01-10T08:53:16.180Z,97673.72
2023-01-10T08:55:44.627Z,97688.91
2023-01-10T08:58:14.590Z,97689.41
2023-01-10T09:00:45.043Z,97687.75
2023-01-10T09:03:14.235Z,97686.66
2023-01-10T09:05:43.529Z,97698.03
2023-01-10T09:08:12.130Z,97696.97
2023-01-10T09:10:41.588Z,97703.91
2023-01-10T09:13:09.990Z,97711.94
2023-01-10T09:15:40.406Z,97710.13
2023-01-10T09:18:09.003Z,97707.84
2023-01-10T09:20:39.874Z,97703.06
2023-01-10T09:23:09.450Z,97715.16
2023-01-10T09:25:38.055Z,97733.50
2023-01-10T09:28:07.382Z,97743.06
2023-01-10T09:30:36.416Z,97754.06
2023-01-10T09:33:07.281Z,97763.38
2023-01-10T09:35:37.379Z,97768.41
2023-01-10T09:38:07.757Z,97772.72
2023-01-10T09:40:47.848Z,97765.88
2023-01-10T09:43:18.303Z,97772.50
2023-01-10T09:45:51.687Z,97764.47
2023-01-10T09:48:26.538Z,97773.56
2023-01-10T09:51:06.354Z,97783.59
2023-01-10T09:53:35.751Z,97789.09
2023-01-10T09:56:06.149Z,97786.94
2023-01-10T09:58:35.890Z,97779.50
2023-01-10T10:01:07.496Z,97784.44
2023-01-10T10:03:42.084Z,97802.88
2023-01-10T10:06:12.615Z,97797.16
2023-01-10T10:08:41.609Z,97791.03
2023-01-10T10:11:32.389Z,97779.31
2023-01-10T10:14:04.927Z,97782.56
2023-01-10T10:16:39.348Z,97779.44
2023-01-10T10:19:14.890Z,97782.81
2023-01-10T10:21:50.096Z,97783.75
2023-01-10T10:24:34.989Z,97789.47
2023-01-10T10:27:09.777Z,97788.06
2023-01-10T10:30:05.668Z,97782.81
2023-01-10T10:32:52.623Z,97783.75
2023-01-10T10:35:27.938Z,97774.91
2023-01-10T10:37:58.983Z,97774.78
2023-01-10T10:40:31.214Z,97777.41
2023-01-10T10:43:02.768Z,97775.41
2023-01-10T10:45:39.536Z,97789.03
2023-01-10T10:48:15.204Z,97798.09
2023-01-10T10:50:51.662Z,97793.28
2023-01-10T10:53:20.115Z,97793.50
2023-01-10T10:55:48.875Z,97795.06
2023-01-10T10:58:17.615Z,97792.31
2023-01-10T11:00:46.399Z,97788.63
2023-01-10T11:03:26.317Z,97797.81
2023-01-10T11:05:56.332Z,97796.03
2023-01-10T11:08:25.263Z,97802.97
2023-01-10T11:10:55.666Z,97796.88
2023-01-10T11:13:32.392Z,97799.38
2023-01-10T11:16:01.594Z,97796.66
2023-01-10T11:18:32.293Z,97810.16
2023-01-10T11:21:05.017Z,97807.06
2023-01-10T11:23:41.840Z,97797.88
2023-01-10T11:26:13.128Z,97808.41
2023-01-10T11:28:41.614Z,97815.34
2023-01-10T11:31:10.149Z,97809.81
2023-01-10T11:33:40.058Z,97811.25
2023-01-10T11:36:12.903Z,97809.91
2023-01-10T11:38:41.303Z,97810.53
2023-01-10T11:41:24.904Z,97806.13
2023-01-10T11:43:53.335Z,97806.72
2023-01-10T11:46:26.136Z,97806.94
2023-01-10T11:49:07.254Z,97809.09
2023-01-10T11:51:39.538Z,97816.97
2023-01-10T11:54:11.299Z,97805.03
2023-01-10T11:56:41.563Z,97806.72
2023-01-10T11:59:12.561Z,97807.56
2023-01-10T12:01:42.655Z,97802.81
2023-01-10T12:04:15.654Z,97795.84
2023-01-10T12:06:47.539Z,97789.25
2023-01-10T12:09:36.486Z,97794.75
2023-01-10T12:12:06.736Z,97787.34
2023-01-10T12:14:36.011Z,97789.53
2023-01-10T12:17:04.867Z,97785.22
2023-01-10T12:19:33.366Z,97793.63
2023-01-10T12:22:06.167Z,97793.63
2023-01-10T12:24:36.572Z,97801.28
2023-01-10T12:27:05.962Z,97804.47
2023-01-10T12:29:36.774Z,97797.19
2023-01-10T12:32:06.534Z,97801.28
2023-01-10T12:34:41.334Z,97810.38
2023-01-10T12:37:15.590Z,97808.34
2023-01-10T12:39:46.329Z,97811.22
2023-01-10T12:42:48.758Z,97820.06
2023-01-10T12:45:22.367Z,97819.22
2023-01-10T12:47:58.031Z,97815.53
2023-01-10T12:50:32.415Z,97822.81
2023-01-10T12:53:05.506Z,97834.13
2023-01-10T12:55:37.911Z,97825.66
2023-01-10T12:58:06.710Z,97833.91
2023-01-10T13:00:47.630Z,97834.97
2023-01-10T13:03:21.505Z,97835.97
2023-01-10T13:05:52.049Z,97834.06
2023-01-10T13:08:24.293Z,97829.53
2023-01-10T13:10:55.024Z,97831.44
2023-01-10T13:13:30.571Z,97827.34
2023-01-10T13:16:05.692Z,97844.22
2023-01-10T13:18:34.870Z,97840.63
2023-01-10T13:21:08.420Z,97846.50
2023-01-10T13:23:39.513Z,97851.16
2023-01-10T13:26:09.887Z,97850.53
2023-01-10T13:28:41.088Z,97850.66
2023-01-10T13:31:23.729Z,97851.38
2023-01-10T13:33:54.908Z,97852.66
2023-01-10T13:36:26.049Z,97842.75
2023-01-10T13:38:57.975Z,97846.50
2023-01-10T13:42:21.480Z,97840.41
2023-01-10T13:45:15.783Z,97844.72
2023-01-10T13:48:02.540Z,97835.97
2023-01-10T13:50:53.460Z,97842.94
2023-01-10T13:54:01.566Z,97843.03
2023-01-10T13:56:33.110Z,97844.59
2023-01-10T13:59:19.375Z,97849.66
2023-01-10T14:02:09.877Z,97847.84
2023-01-10T14:04:40.377Z,97849.66
2023-01-10T14:07:19.410Z,97851.34
2023-01-10T14:09:50.625Z,97847.97
2023-01-10T14:12:26.380Z,97848.69
2023-01-10T14:14:57.620Z,97845.13
2023-01-10T14:17:28.344Z,97849.53
2023-01-10T14:20:02.951Z,97843.31
2023-01-10T14:22:33.204Z,97839.00
2023-01-10T14:25:04.542Z,97840.56
2023-01-10T14:27:39.776Z,97837.22
2023-01-10T14:30:09.215Z,97844.88
2023-01-10T14:32:40.934Z,97848.69
2023-01-10T14:35:11.683Z,97846.28
2023-01-10T14:37:42.200Z,97842.94
2023-01-10T14:40:26.217Z,97843.75
2023-01-10T14:42:58.424Z,97844.31
2023-01-10T14:45:37.222Z,97843.25
2023-01-10T14:48:29.938Z,97840.63
2023-01-10T14:51:18.119Z,97846.00
2023-01-10T14:53:46.609Z,97844.94
2023-01-10T14:56:26.258Z,97839.44
2023-01-10T14:58:54.916Z,97831.56
2023-01-10T15:01:26.089Z,97828.06
2023-01-10T15:03:55.270Z,97832.38
2023-01-10T15:06:25.775Z,97833.34
2023-01-10T15:08:58.984Z,97842.09
2023-01-10T15:11:30.438Z,97848.19
2023-01-10T15:14:04.363Z,97848.06
2023-01-10T15:16:33.551Z,97848.31
2023-01-10T15:19:02.538Z,97846.41
2023-01-10T15:21:30.992Z,97847.25
2023-01-10T15:23:59.438Z,97845.66
2023-01-10T15:26:33.238Z,97836.19
2023-01-10T15:29:10.460Z,97832.63
2023-01-10T15:31:39.268Z,97839.56
2023-01-10T15:34:09.886Z,97838.59
2023-01-10T15:36:43.168Z,97837.66
2023-01-10T15:39:18.348Z,97837.53
2023-01-10T15:41:48.277Z,97840.06
2023-01-10T15:44:38.598Z,97838.16
2023-01-10T15:47:07.959Z,97837.44
2023-01-10T15:49:36.385Z,97831.31
2023-01-10T15:52:05.282Z,97840.06
2023-01-10T15:54:34.111Z,97841.84
2023-01-10T15:57:08.868Z,97842.69
2023-01-10T15:59:39.510Z,97845.22
2023-01-10T16:02:22.715Z,97838.16
2023-01-10T16:04:53.192Z,97835.63
2023-01-10T16:07:27.593Z,97833.84
2023-01-10T16:09:58.543Z,97826.91
2023-01-10T16:12:54.792Z,97821.63
2023-01-10T16:15:24.211Z,97821.75
2023-01-10T16:17:53.521Z,97821.41
2023-01-10T16:20:23.430Z,97818.03
2023-01-10T16:22:51.920Z,97812.78
2023-01-10T16:25:21.862Z,97825.94
2023-01-10T16:27:51.584Z,97817.09
2023-01-10T16:30:25.035Z,97819.72
2023-01-10T16:32:54.157Z,97815.28
2023-01-10T16:35:22.721Z,97812.78
2023-01-10T16:37:55.333Z,97812.66
2023-01-10T16:40:27.614Z,97814.47
2023-01-10T16:43:14.968Z,97810.13
2023-01-10T16:45:43.389Z,97804.88
2023-01-10T16:48:12.007Z,97804.75
2023-01-10T16:50:40.816Z,97805.59
2023-01-10T16:53:11.681Z,97800.34
2023-01-10T16:55:42.622Z,97795.06
2023-01-10T16:58:13.666Z,97794.13
2023-01-10T17:00:44.020Z,97800.22
2023-01-10T17:03:14.506Z,97798.44
2023-01-10T17:05:43.128Z,97800.94
2023-01-10T17:08:16.771Z,97791.38
2023-01-10T17:10:47.116Z,97792.19
2023-01-10T17:13:19.390Z,97794.94
2023-01-10T17:15:47.857Z,97791.47
2023-01-10T17:18:16.287Z,97786.94
2023-01-10T17:20:48.923Z,97780.94
2023-01-10T17:23:17.315Z,97780.94
2023-01-10T17:25:47.170Z,97784.31
2023-01-10T17:28:17.310Z,97785.25
2023-01-10T17:30:45.755Z,97783.47
2023-01-10T17:33:14.448Z,97782.50
2023-01-10T17:35:43.713Z,97779.03
2023-01-10T17:38:14.758Z,97785.25
2023-01-10T17:40:49.359Z,97773.75
2023-01-10T17:43:21.016Z,97781.78
2023-01-10T17:45:51.314Z,97777.34
2023-01-10T17:48:20.768Z,97771.25
2023-01-10T17:50:49.967Z,97774.72
2023-01-10T17:53:18.624Z,97772.19
2023-01-10T17:55:47.713Z,97771.13
2023-01-10T17:58:16.517Z,97767.66
2023-01-10T18:00:47.172Z,97763.22
2023-01-10T18:03:15.902Z,97763.22
2023-01-10T18:05:50.543Z,97770.41
2023-01-10T18:08:18.938Z,97766.09
2023-01-10T18:10:47.688Z,97765.13
2023-01-10T18:13:17.475Z,97772.19
2023-01-10T18:15:49.650Z,97778.31
2023-01-10T18:18:23.153Z,97773.03
2023-01-10T18:20:53.130Z,97773.75
2023-01-10T18:23:26.595Z,97777.47
2023-01-10T18:25:56.738Z,97778.31
2023-01-10T18:28:39.524Z,97780.22
2023-01-10T18:31:12.347Z,97778.31
2023-01-10T18:33:41.022Z,97781.16
2023-01-10T18:36:14.819Z,97771.34
2023-01-10T18:38:43.771Z,97774.00
2023-01-10T18:41:12.224Z,97765.25
2023-01-10T18:43:43.597Z,97760.09
2023-01-10T18:46:19.795Z,97762.84
2023-01-10T18:49:07.890Z,97752.19
2023-01-10T18:55:48.077Z,97758.19
2023-01-10T18:58:30.329Z,97746.81
2023-01-10T19:01:32.630Z,97745.97
2023-01-10T19:04:29.164Z,97745.97
2023-01-10T19:07:41.404Z,97745.97
2023-01-10T19:11:07.128Z,97751.25
2023-01-10T19:13:51.424Z,97747.88
2023-01-10T19:16:45.999Z,97751.97
2023-01-10T19:19:40.856Z,97753.88
2023-01-10T19:22:30.518Z,97749.44
2023-01-10T19:25:54.370Z,97746.81
2023-01-10T19:28:50.343Z,97752.19
2023-01-10T19:31:41.824Z,97747.66
2023-01-10T19:34:17.757Z,97747.78
2023-01-10T19:37:02.466Z,97739.88
2023-01-10T19:40:11.342Z,97733.75
2023-01-10T19:43:16.301Z,97731.13
2023-01-10T19:46:13.538Z,97730.16
2023-01-10T19:49:10.639Z,97723.09
2023-01-10T19:52:10.659Z,97728.50
2023-01-10T19:54:44.379Z,97729.44
2023-01-10T19:57:12.901Z,97731.13
2023-01-10T19:59:50.071Z,97730.41
2023-01-10T20:02:45.710Z,97725.13
2023-01-10T20:05:21.001Z,97722.38
2023-01-10T20:07:51.346Z,97718.91
2023-01-10T20:10:34.142Z,97724.19
2023-01-10T20:13:32.188Z,97719.88
2023-01-10T20:16:25.830Z,97725.13
2023-01-10T20:19:02.319Z,97719.03
2023-01-10T20:21:31.606Z,97721.66
2023-01-10T20:24:01.542Z,97719.88
2023-01-10T20:26:39.926Z,97726.19
2023-01-10T20:29:19.295Z,97724.41
2023-01-10T20:32:03.592Z,97720.81
2023-01-10T20:35:18.732Z,97709.56
2023-01-10T20:37:53.509Z,97720.94
2023-01-10T20:40:26.082Z,97707.75
2023-01-10T20:42:55.081Z,97706.94
2023-01-10T20:45:43.991Z,97701.53
2023-01-10T20:48:40.745Z,97706.94
2023-01-10T20:51:44.669Z,97699.03
2023-01-10T20:54:48.621Z,97692.06
2023-01-10T20:57:50.420Z,97690.41
2023-01-10T21:00:53.307Z,97690.28
2023-01-10T21:03:43.130Z,97691.97
2023-01-10T21:06:36.065Z,97686.69
2023-01-10T21:09:27.537Z,97685.84
2023-01-10T21:12:42.232Z,97685.97
2023-01-10T21:16:07.852Z,97687.66
2023-01-10T21:18:59.658Z,97672.69
2023-01-10T21:22:06.266Z,97674.47
2023-01-10T21:25:36.593Z,97668.38
2023-01-10T21:28:37.666Z,97677.13
2023-01-10T21:31:33.891Z,97673.75
2023-01-10T21:34:26.646Z,97680.72
2023-01-10T21:37:35.754Z,97669.34
2023-01-10T21:40:08.340Z,97667.66
2023-01-10T21:46:30.886Z,97672.91
2023-01-10T21:49:40.754Z,97675.56
2023-01-10T21:52:33.833Z,97655.44
2023-01-10T21:55:22.447Z,97654.72
2023-01-10T21:57:51.725Z,97656.41
2023-01-10T22:01:01.139Z,97655.69
2023-01-10T22:04:03.536Z,97654.59
2023-01-10T22:06:41.019Z,97661.66
2023-01-10T22:09:09.597Z,97653.88
2023-01-10T22:12:05.786Z,97662.75
2023-01-10T22:15:41.704Z,97653.16
2023-01-10T22:18:39.813Z,97651.38
2023-01-10T22:21:19.803Z,97657.34
2023-01-10T22:23:53.841Z,97647.06
2023-01-10T22:26:54.107Z,97643.47
2023-01-10T22:30:05.254Z,97639.16
2023-01-10T22:33:05.919Z,97636.53
2023-01-10T22:36:17.120Z,97633.88
2023-01-10T22:39:40.882Z,97626.00
2023-01-10T22:42:50.533Z,97618.19
2023-01-10T22:45:52.008Z,97616.19
2023-01-10T22:49:11.459Z,97621.56
2023-01-10T22:52:28.696Z,97622.50
2023-01-10T22:55:36.605Z,97621.56
2023-01-10T22:58:43.467Z,97621.56
2023-01-10T23:01:18.961Z,97616.19
2023-01-10T23:03:47.959Z,97617.97
2023-01-10T23:06:17.007Z,97621.44
2023-01-10T23:08:45.944Z,97610.19
2023-01-10T23:11:18.391Z,97611.88
2023-01-10T23:13:47.453Z,97605.75
2023-01-10T23:16:18.332Z,97595.22
2023-01-10T23:18:47.945Z,97600.50
2023-01-10T23:21:17.251Z,97596.91
2023-01-10T23:23:45.829Z,97596.91
2023-01-10T23:26:16.381Z,97588.06
2023-01-10T23:28:47.061Z,97584.69
2023-01-10T23:31:17.344Z,97583.75
2023-01-10T23:33:46.135Z,97579.44
2023-01-10T23:36:15.191Z,97579.31
2023-01-10T23:38:44.223Z,97583.75
2023-01-10T23:41:13.090Z,97586.50
2023-01-10T23:43:43.585Z,97583.75
2023-01-10T23:46:12.155Z,97574.03
2023-01-10T23:48:40.833Z,97571.53
2023-01-10T23:51:11.392Z,97578.59
2023-01-10T23:53:40.306Z,97574.16
2023-01-10T23:56:10.448Z,97574.28
2023-01-10T23:58:39.666Z,97570.56
